Time;durP1;ratioP1;P1;durP2;ratioP2;P2;SDS_P1;SDS_P2;PMS_P1;PMS_P2;Temp;Humidity;BMP_temperature;BMP_pressure;BME280_temperature;BME280_humidity;BME280_pressure;Samples;Min_cycle;Max_cycle;Signal;HPM_P1;HPM_P2
2021/12/07 00:01:01;;;;;;;53.70;38.10;;;;;;;0.35;100.00;98524.72;102412;1310;74473;-77
2021/12/07 00:03:27;;;;;;;61.50;41.50;;;;;;;0.29;100.00;98523.35;102383;1314;60609;-76
2021/12/07 00:05:54;;;;;;;53.00;37.40;;;;;;;0.25;100.00;98525.07;102344;1310;62117;-75
2021/12/07 00:08:21;;;;;;;55.90;38.30;;;;;;;0.23;100.00;98528.63;102395;1311;75660;-76
2021/12/07 00:10:50;;;;;;;55.60;38.50;;;;;;;0.22;100.00;98532.65;102389;1314;70189;-76
2021/12/07 00:13:17;;;;;;;50.90;35.10;;;;;;;0.25;100.00;98535.90;102355;1310;74271;-76
2021/12/07 00:15:43;;;;;;;51.50;36.40;;;;;;;0.26;100.00;98541.10;102399;1314;60608;-75
2021/12/07 00:18:10;;;;;;;51.30;36.20;;;;;;;0.28;100.00;98542.25;102394;1311;62021;-76
2021/12/07 00:20:37;;;;;;;53.90;37.90;;;;;;;0.29;100.00;98542.58;102385;1314;74669;-76
2021/12/07 00:23:07;;;;;;;54.10;38.20;;;;;;;0.28;100.00;98539.27;102439;1310;70326;-76
2021/12/07 00:25:36;;;;;;;55.50;37.40;;;;;;;0.28;100.00;98540.50;102555;1311;74342;-75
2021/12/07 00:28:03;;;;;;;56.60;38.70;;;;;;;0.26;100.00;98533.41;102337;1314;60533;-75
2021/12/07 00:30:33;;;;;;;60.40;41.40;;;;;;;0.23;100.00;98533.52;102042;1316;60514;-75
2021/12/07 00:33:14;;;;;;;53.80;39.60;;;;;;;0.22;100.00;98537.21;102424;1311;75100;-75
2021/12/07 00:35:42;;;;;;;52.70;37.20;;;;;;;0.21;100.00;98539.16;102080;1314;70506;-76
2021/12/07 00:38:18;;;;;;;55.00;38.90;;;;;;;0.20;100.00;98542.33;102483;1311;72889;-76
2021/12/07 00:40:45;;;;;;;55.40;38.50;;;;;;;0.23;100.00;98545.75;102372;1314;60498;-76
2021/12/07 00:43:12;;;;;;;51.80;37.10;;;;;;;0.28;100.00;98546.43;102385;1310;60622;-76
2021/12/07 00:45:42;;;;;;;57.50;39.00;;;;;;;0.33;100.00;98543.16;102447;1314;74588;-76
2021/12/07 00:48:09;;;;;;;52.50;35.70;;;;;;;0.34;100.00;98539.27;102397;1311;70527;-76
2021/12/07 00:50:37;;;;;;;51.30;34.30;;;;;;;0.34;100.00;98535.96;102403;1311;74504;-76
2021/12/07 00:53:05;;;;;;;56.60;37.20;;;;;;;0.28;100.00;98529.66;102399;1313;60580;-76
2021/12/07 00:55:36;;;;;;;54.30;37.80;;;;;;;0.24;100.00;98531.21;102463;1311;61876;-75
2021/12/07 00:58:13;;;;;;;49.90;34.70;;;;;;;0.21;100.00;98527.63;102452;1314;75147;-76
2021/12/07 01:00:41;;;;;;;53.70;34.90;;;;;;;0.21;100.00;98522.73;102397;1311;68966;-76
2021/12/07 01:03:08;;;;;;;46.70;34.50;;;;;;;0.20;100.00;98523.63;102382;1314;72906;-76
2021/12/07 01:05:36;;;;;;;46.80;34.00;;;;;;;0.24;100.00;98523.70;102393;1314;60414;-75
2021/12/07 01:24:41;;;;;;;53.60;38.40;;;;;;;0.30;100.00;98515.98;102376;1314;75402;-76
2021/12/07 01:27:11;;;;;;;57.00;38.40;;;;;;;0.29;100.00;98509.73;102220;1310;70811;-76
2021/12/07 01:29:40;;;;;;;58.30;38.00;;;;;;;0.27;100.00;98507.16;102381;1310;73211;-76
2021/12/07 01:32:17;;;;;;;58.80;39.30;;;;;;;0.28;100.00;98504.34;102367;1314;60490;-76
2021/12/07 01:43:12;;;;;;;58.90;39.80;;;;;;;0.33;100.00;98522.17;102467;1310;74521;-76
2021/12/07 02:01:54;;;;;;;60.80;40.10;;;;;;;0.26;100.00;98507.90;102110;1313;60603;-76
2021/12/07 02:04:21;;;;;;;61.70;41.40;;;;;;;0.26;100.00;98497.44;102373;1310;75658;-76
2021/12/07 02:06:48;;;;;;;58.80;41.40;;;;;;;0.22;100.00;98497.19;102441;1310;71102;-76
2021/12/07 02:09:14;;;;;;;58.20;40.30;;;;;;;0.21;100.00;98491.83;102535;1311;73826;-75
2021/12/07 02:11:48;;;;;;;59.40;38.90;;;;;;;0.20;100.00;98487.98;102367;1314;60551;-77
2021/12/07 02:14:16;;;;;;;59.30;39.10;;;;;;;0.20;100.00;98483.44;102455;1311;61654;-77
2021/12/07 02:16:56;;;;;;;58.90;37.30;;;;;;;0.19;100.00;98476.86;102218;1313;74617;-76
2021/12/07 02:19:24;;;;;;;58.70;38.70;;;;;;;0.17;100.00;98470.46;102362;1309;69530;-76
2021/12/07 02:21:53;;;;;;;56.30;38.90;;;;;;;0.19;100.00;98468.81;102387;1316;73437;-76
2021/12/07 02:24:20;;;;;;;63.30;39.20;;;;;;;0.20;100.00;98470.52;102112;1314;60783;-76
2021/12/07 02:26:47;;;;;;;62.60;42.90;;;;;;;0.22;100.00;98473.63;102504;1310;61218;-77
2021/12/07 02:29:15;;;;;;;62.10;42.60;;;;;;;0.25;100.00;98476.34;102265;1314;71929;-76
2021/12/07 02:31:42;;;;;;;63.60;40.80;;;;;;;0.25;100.00;98475.80;102523;1311;67803;-76
2021/12/07 02:34:09;;;;;;;66.80;45.90;;;;;;;0.26;100.00;98475.76;102531;1314;72917;-75
2021/12/07 02:36:36;;;;;;;65.00;41.30;;;;;;;0.25;100.00;98473.36;102542;1310;60708;-76
2021/12/07 02:39:05;;;;;;;63.00;40.80;;;;;;;0.20;100.00;98478.22;102401;1311;60454;-76
2021/12/07 02:41:32;;;;;;;57.20;38.90;;;;;;;0.18;100.00;98482.66;102409;1314;74664;-76
2021/12/07 02:43:59;;;;;;;55.40;36.00;;;;;;;0.20;100.00;98483.63;102429;1314;69203;-75
2021/12/07 02:46:26;;;;;;;54.40;36.40;;;;;;;0.22;100.00;98483.58;102436;1311;74189;-76
2021/12/07 02:48:53;;;;;;;55.60;36.70;;;;;;;0.21;100.00;98482.39;102112;1313;60697;-76
2021/12/07 02:51:19;;;;;;;61.00;38.40;;;;;;;0.22;100.00;98483.39;102112;1314;60919;-77
2021/12/07 02:53:47;;;;;;;58.40;38.90;;;;;;;0.26;100.00;98482.75;102058;1313;75411;-76
2021/12/07 02:56:14;;;;;;;59.70;37.80;;;;;;;0.29;100.00;98484.91;102109;1313;70644;-77
2021/12/07 02:58:43;;;;;;;55.70;35.20;;;;;;;0.27;100.00;98488.13;102109;1314;73558;-77
2021/12/07 03:01:21;;;;;;;54.70;35.20;;;;;;;0.23;100.00;98488.09;102100;1313;60463;-75
2021/12/07 03:04:04;;;;;;;49.90;31.70;;;;;;;0.19;100.00;98487.84;102119;1319;61952;-75
2021/12/07 03:07:43;;;;;;;44.40;29.40;;;;;;;0.14;100.00;98484.70;102130;1317;74918;-75
2021/12/07 03:28:27;;;;;;;33.90;22.70;;;;;;;-0.12;100.00;98501.63;102475;1314;60642;-78
2021/12/07 03:30:54;;;;;;;35.10;24.30;;;;;;;-0.17;100.00;98500.23;102079;1311;62053;-77
2021/12/07 03:33:21;;;;;;;32.80;22.50;;;;;;;-0.19;100.00;98503.23;102477;1310;75381;-76
2021/12/07 03:35:47;;;;;;;36.70;23.70;;;;;;;-0.22;100.00;98502.44;102533;1310;71003;-76
2021/12/07 03:38:14;;;;;;;35.30;22.40;;;;;;;-0.21;100.00;98505.55;102489;1314;74913;-77
2021/12/07 03:40:41;;;;;;;33.80;22.90;;;;;;;-0.19;100.00;98504.10;102663;1310;60492;-76
2021/12/07 03:43:10;;;;;;;33.20;23.40;;;;;;;-0.16;100.00;98509.08;103045;1310;60647;-75
2021/12/07 03:45:37;;;;;;;32.50;23.30;;;;;;;-0.15;100.00;98516.73;103180;1313;75371;-76
2021/12/07 03:48:06;;;;;;;33.10;23.30;;;;;;;-0.16;100.00;98519.20;103504;1311;68794;-76
2021/12/07 03:50:33;;;;;;;37.10;23.80;;;;;;;-0.18;100.00;98521.20;103501;1310;73240;-76
2021/12/07 03:52:59;;;;;;;34.50;23.30;;;;;;;-0.19;100.00;98523.85;102498;1310;60602;-76
2021/12/07 03:55:26;;;;;;;35.60;23.60;;;;;;;-0.20;100.00;98525.98;102511;1311;60531;-77
2021/12/07 03:57:53;;;;;;;34.20;23.50;;;;;;;-0.17;100.00;98523.59;102570;1311;74218;-76
2021/12/07 04:00:24;;;;;;;36.00;24.00;;;;;;;-0.11;100.00;98524.13;102665;1314;69665;-76
2021/12/07 04:02:53;;;;;;;35.50;24.00;;;;;;;-0.07;100.00;98524.17;102617;1314;73296;-77
2021/12/07 04:05:23;;;;;;;37.10;25.40;;;;;;;-0.08;99.90;98523.50;102645;1311;60531;-77
2021/12/07 04:07:51;;;;;;;39.00;25.70;;;;;;;-0.12;99.93;98533.04;102316;1317;60698;-75
2021/12/07 04:10:20;;;;;;;38.80;24.20;;;;;;;-0.15;99.89;98536.10;102268;1316;75139;-77
2021/12/07 04:12:47;;;;;;;38.10;25.40;;;;;;;-0.16;99.80;98540.87;102704;1310;69255;-76
2021/12/07 04:15:16;;;;;;;38.80;26.50;;;;;;;-0.16;99.89;98537.19;102678;1311;73687;-76
2021/12/07 04:17:43;;;;;;;37.60;24.50;;;;;;;-0.17;99.91;98542.29;102814;1310;60488;-77
2021/12/07 04:20:12;;;;;;;34.90;24.90;;;;;;;-0.15;100.00;98543.09;102858;1310;60561;-76
2021/12/07 04:22:39;;;;;;;42.40;24.70;;;;;;;-0.12;99.94;98542.33;103019;1314;74662;-75
2021/12/07 04:25:09;;;;;;;41.10;25.50;;;;;;;-0.14;99.60;98540.60;102771;1313;69520;-74
2021/12/07 04:27:38;;;;;;;44.00;28.20;;;;;;;-0.18;99.52;98538.48;103159;1314;73625;-77
2021/12/07 04:30:16;;;;;;;43.40;28.00;;;;;;;-0.24;99.49;98539.35;105221;1316;60300;-76
2021/12/07 04:32:44;;;;;;;42.70;28.50;;;;;;;-0.27;99.63;98540.13;105228;1317;61113;-75
2021/12/07 04:35:11;;;;;;;46.30;27.40;;;;;;;-0.27;99.62;98543.83;105363;1317;74619;-75
2021/12/07 04:37:39;;;;;;;41.90;27.00;;;;;;;-0.26;99.61;98546.06;105685;1310;69489;-76
2021/12/07 04:40:09;;;;;;;46.00;29.00;;;;;;;-0.25;99.57;98546.39;103862;1311;74534;-76
2021/12/07 04:42:36;;;;;;;48.70;27.90;;;;;;;-0.27;99.47;98545.90;102575;1307;233625;-77
2021/12/07 04:45:07;;;;;;;45.10;27.10;;;;;;;-0.32;99.37;98546.73;102295;1313;60872;-76
2021/12/07 04:47:45;;;;;;;47.50;29.20;;;;;;;-0.34;99.56;98543.84;102539;1311;75168;-77
2021/12/07 04:57:35;;;;;;;47.60;28.90;;;;;;;-0.32;99.77;98545.02;102556;1310;70503;-76
2021/12/07 04:58:49;;;;;;;54.00;32.80;;;;;;;-0.25;99.99;98540.24;102352;1310;61890;-77
2021/12/07 05:01:17;;;;;;;49.80;30.50;;;;;;;-0.22;100.00;98540.17;102375;1310;76134;-77
2021/12/07 05:03:45;;;;;;;47.80;29.80;;;;;;;-0.20;99.99;98541.02;102391;1310;70405;-75
2021/12/07 05:06:12;;;;;;;49.50;30.10;;;;;;;-0.23;99.95;98542.30;102414;1311;74583;-76
2021/12/07 05:08:55;;;;;;;47.70;29.20;;;;;;;-0.26;99.87;98540.30;102458;1311;60440;-76
2021/12/07 05:11:31;;;;;;;45.10;28.90;;;;;;;-0.30;99.81;98539.54;102675;1311;60903;-77
2021/12/07 05:14:14;;;;;;;48.80;28.30;;;;;;;-0.30;99.93;98541.29;102476;1311;75741;-76
2021/12/07 05:38:32;;;;;;;59.60;30.50;;;;;;;-0.35;100.00;98529.55;101969;1316;60648;-76
2021/12/07 05:40:59;;;;;;;44.50;27.50;;;;;;;-0.34;100.00;98527.10;102463;1311;72497;-76
2021/12/07 05:43:25;;;;;;;51.20;28.10;;;;;;;-0.33;100.00;98522.34;102153;1314;68566;-76
2021/12/07 05:45:52;;;;;;;46.80;27.50;;;;;;;-0.35;100.00;98521.01;102417;1311;73076;-76
2021/12/07 05:48:19;;;;;;;48.40;28.50;;;;;;;-0.37;100.00;98520.38;102379;1310;60526;-76
2021/12/07 05:50:45;;;;;;;41.20;24.10;;;;;;;-0.41;100.00;98523.46;102439;1311;60857;-76
2021/12/07 05:53:12;;;;;;;48.80;29.00;;;;;;;-0.46;100.00;98521.16;102388;1311;75434;-76
2021/12/07 05:55:40;;;;;;;45.60;27.60;;;;;;;-0.47;100.00;98521.90;102165;1313;70560;-77
2021/12/07 05:58:09;;;;;;;46.70;27.40;;;;;;;-0.47;100.00;98520.66;102331;1311;74464;-77
2021/12/07 06:00:39;;;;;;;48.80;29.80;;;;;;;-0.45;100.00;98520.42;102015;1311;60524;-78
2021/12/07 06:03:09;;;;;;;42.80;27.80;;;;;;;-0.43;100.00;98514.63;102471;1311;61444;-77
2021/12/07 06:05:37;;;;;;;41.50;27.80;;;;;;;-0.45;100.00;98520.28;102484;1310;75368;-76
2021/12/07 06:08:05;;;;;;;51.30;30.80;;;;;;;-0.48;100.00;98522.27;102476;1310;70890;-76
2021/12/07 06:10:33;;;;;;;45.20;27.80;;;;;;;-0.45;100.00;98526.03;102424;1311;73766;-76
2021/12/07 06:12:59;;;;;;;45.50;27.00;;;;;;;-0.46;100.00;98525.00;102386;1311;60605;-76
2021/12/07 06:15:31;;;;;;;49.50;29.30;;;;;;;-0.47;100.00;98526.63;102407;1310;61128;-75
2021/12/07 06:17:58;;;;;;;45.00;27.00;;;;;;;-0.48;100.00;98528.73;102386;1310;74158;-77
2021/12/07 06:20:25;;;;;;;42.90;26.40;;;;;;;-0.44;100.00;98532.99;102409;1311;70376;-77
2021/12/07 06:22:52;;;;;;;43.50;27.80;;;;;;;-0.40;100.00;98537.77;102367;1311;73442;-76
2021/12/07 06:25:18;;;;;;;44.00;27.80;;;;;;;-0.40;100.00;98537.95;102404;1310;60490;-75
2021/12/07 06:27:45;;;;;;;39.10;24.50;;;;;;;-0.40;100.00;98538.63;102443;1311;61217;-76
2021/12/07 06:30:13;;;;;;;41.20;25.70;;;;;;;-0.39;100.00;98541.40;102387;1311;74285;-77
2021/12/07 06:32:40;;;;;;;42.60;27.10;;;;;;;-0.39;100.00;98538.61;102056;1317;68757;-76
2021/12/07 06:35:08;;;;;;;41.00;26.00;;;;;;;-0.42;100.00;98538.35;102429;1311;74239;-75
2021/12/07 06:37:36;;;;;;;47.90;27.50;;;;;;;-0.43;100.00;98545.52;102394;1310;60687;-76
2021/12/07 06:40:06;;;;;;;44.40;28.00;;;;;;;-0.42;100.00;98544.10;102456;1310;61324;-76
2021/12/07 06:42:33;;;;;;;;;;;;;;;-0.42;100.00;98546.02;102475;1314;75572;-76
2021/12/07 06:44:59;;;;;;;46.40;27.90;;;;;;;-0.42;100.00;98548.63;102408;1311;60465;-77
2021/12/07 06:47:26;;;;;;;45.40;28.70;;;;;;;-0.37;100.00;98551.11;102425;1311;60834;-77
2021/12/07 06:49:52;;;;;;;47.90;30.80;;;;;;;-0.33;100.00;98555.17;102485;1311;60577;-74
2021/12/07 06:52:19;;;;;;;50.10;32.30;;;;;;;-0.31;100.00;98558.08;102495;1311;62767;-77
2021/12/07 06:54:45;;;;;;;50.50;30.40;;;;;;;-0.32;100.00;98558.96;102475;1315;75645;-76
2021/12/07 06:57:12;;;;;;;48.10;31.20;;;;;;;-0.33;100.00;98562.67;102403;1311;67447;-76
2021/12/07 06:59:38;;;;;;;48.10;29.80;;;;;;;-0.35;100.00;98565.70;102377;1314;72871;-76
2021/12/07 07:02:05;;;;;;;45.10;27.40;;;;;;;-0.36;100.00;98565.74;102425;1311;60634;-75
2021/12/07 07:04:32;;;;;;;47.70;31.10;;;;;;;-0.37;100.00;98570.47;102402;1311;60911;-76
2021/12/07 07:06:58;;;;;;;46.80;31.90;;;;;;;-0.33;100.00;98573.83;102397;1310;74758;-74
2021/12/07 07:09:25;;;;;;;50.70;32.30;;;;;;;-0.26;100.00;98580.43;102397;1311;69560;-77
2021/12/07 07:11:52;;;;;;;46.80;31.30;;;;;;;-0.23;100.00;98582.10;102405;1310;72808;-77
2021/12/07 07:14:18;;;;;;;48.10;31.50;;;;;;;-0.20;100.00;98584.09;102033;1314;60568;-77
2021/12/07 07:16:45;;;;;;;46.70;28.50;;;;;;;-0.18;100.00;98584.25;102391;1311;62177;-77
2021/12/07 07:19:11;;;;;;;49.60;31.30;;;;;;;-0.18;100.00;98587.02;102434;1314;76407;-76
2021/12/07 07:21:38;;;;;;;42.60;28.50;;;;;;;-0.18;100.00;98588.59;102400;1311;60545;-77
2021/12/07 07:24:05;;;;;;;46.10;29.90;;;;;;;-0.19;100.00;98591.59;102402;1311;74551;-77
2021/12/07 07:26:32;;;;;;;43.70;29.30;;;;;;;-0.20;100.00;98593.35;102445;1311;60609;-77
2021/12/07 07:28:59;;;;;;;44.00;28.00;;;;;;;-0.17;100.00;98598.53;102412;1314;61980;-76
2021/12/07 07:31:26;;;;;;;47.80;28.60;;;;;;;-0.17;100.00;98596.41;102458;1311;73869;-76
2021/12/07 07:33:53;;;;;;;49.10;29.00;;;;;;;-0.15;100.00;98595.13;102420;1310;70939;-76
2021/12/07 07:36:20;;;;;;;47.40;29.30;;;;;;;-0.14;100.00;98598.23;102399;1311;74456;-76
2021/12/07 07:38:46;;;;;;;49.30;31.20;;;;;;;-0.15;100.00;98597.77;102437;1310;60428;-76
2021/12/07 07:41:13;;;;;;;50.60;30.70;;;;;;;-0.14;100.00;98599.30;102411;1311;61846;-76
2021/12/07 07:43:40;;;;;;;50.60;32.20;;;;;;;-0.13;100.00;98595.59;102401;1310;74452;-76
2021/12/07 07:46:06;;;;;;;45.90;29.70;;;;;;;-0.12;100.00;98594.85;102396;1310;70115;-76
2021/12/07 07:48:33;;;;;;;47.70;29.50;;;;;;;-0.09;100.00;98591.98;102450;1311;73407;-76
2021/12/07 07:51:01;;;;;;;52.20;31.60;;;;;;;-0.09;100.00;98593.04;102552;1314;60575;-76
2021/12/07 07:53:28;;;;;;;48.80;30.80;;;;;;;-0.10;100.00;98592.35;102579;1310;62877;-76
2021/12/07 07:55:54;;;;;;;44.50;29.60;;;;;;;-0.09;100.00;98593.39;102495;1311;75725;-76
2021/12/07 07:58:21;;;;;;;49.90;32.60;;;;;;;-0.10;100.00;98595.86;102565;1314;70618;-77
2021/12/07 08:00:49;;;;;;;50.90;31.50;;;;;;;-0.11;100.00;98598.14;102500;1310;73493;-77
2021/12/07 08:03:16;;;;;;;49.60;30.90;;;;;;;-0.10;100.00;98596.54;102435;1311;60492;-77
2021/12/07 08:05:43;;;;;;;50.90;31.80;;;;;;;-0.08;100.00;98592.13;102436;1311;62123;-76
2021/12/07 08:08:10;;;;;;;49.40;31.60;;;;;;;-0.06;100.00;98590.48;102357;1310;75992;-78
2021/12/07 08:10:36;;;;;;;51.30;31.00;;;;;;;-0.03;100.00;98592.31;102416;1311;70058;-76
2021/12/07 08:13:06;;;;;;;49.60;31.50;;;;;;;-0.02;100.00;98594.21;102262;1313;72976;-77
2021/12/07 08:15:39;;;;;;;55.30;33.20;;;;;;;-0.02;100.00;98598.41;102427;1310;60525;-77
2021/12/07 08:18:06;;;;;;;58.20;34.70;;;;;;;-0.01;100.00;98594.00;102583;1310;60504;-76
2021/12/07 08:20:34;;;;;;;55.60;35.30;;;;;;;-0.02;100.00;98592.81;102411;1310;72725;-77
2021/12/07 08:23:04;;;;;;;51.20;32.10;;;;;;;0.00;100.00;98593.27;102185;1313;69545;-76
2021/12/07 08:25:39;;;;;;;54.30;32.90;;;;;;;0.04;100.00;98589.84;102597;1311;73140;-78
2021/12/07 08:28:07;;;;;;;48.60;29.90;;;;;;;0.08;100.00;98583.94;102410;1311;60888;-76
2021/12/07 08:30:36;;;;;;;50.30;30.50;;;;;;;0.13;100.00;98586.60;102463;1311;61155;-76
2021/12/07 08:33:03;;;;;;;52.20;33.20;;;;;;;0.16;100.00;98585.96;102427;1310;75652;-76
2021/12/07 08:35:30;;;;;;;49.80;31.90;;;;;;;0.23;100.00;98589.07;102485;1310;69868;-75
2021/12/07 08:37:57;;;;;;;51.60;32.20;;;;;;;0.28;100.00;98588.92;102485;1310;73960;-76
2021/12/07 08:40:28;;;;;;;47.10;28.90;;;;;;;0.31;100.00;98592.49;102307;1310;60494;-76
2021/12/07 08:42:55;;;;;;;48.60;31.40;;;;;;;0.33;100.00;98589.44;102407;1310;60593;-77
2021/12/07 08:45:23;;;;;;;48.80;31.90;;;;;;;0.35;100.00;98592.17;102409;1314;74143;-76
2021/12/07 08:47:50;;;;;;;46.50;29.40;;;;;;;0.35;99.99;98597.41;102489;1311;70617;-75
2021/12/07 08:50:22;;;;;;;49.80;29.50;;;;;;;0.34;100.00;98605.66;102511;1311;74298;-77
2021/12/07 08:52:51;;;;;;;50.30;31.00;;;;;;;0.39;100.00;98604.29;102627;1314;60514;-76
2021/12/07 09:00:53;;;;;;;48.10;30.20;;;;;;;0.47;99.87;98612.23;103511;1311;69395;-76
2021/12/07 09:03:20;;;;;;;49.40;30.00;;;;;;;0.44;99.85;98610.05;102937;1313;74063;-77
2021/12/07 09:05:47;;;;;;;45.80;29.80;;;;;;;0.45;99.88;98611.41;102577;1310;60506;-77
2021/12/07 09:08:15;;;;;;;45.00;28.50;;;;;;;0.39;99.61;98606.89;102441;1314;61959;-78
2021/12/07 09:10:42;;;;;;;43.40;28.70;;;;;;;0.35;99.71;98611.73;102660;1314;75158;-80
2021/12/07 09:13:09;;;;;;;45.00;29.00;;;;;;;0.37;99.86;98606.95;102794;1311;69971;-83
2021/12/07 09:15:37;;;;;;;41.80;24.60;;;;;;;0.40;99.84;98605.99;102915;1311;73723;-83
2021/12/07 09:18:04;;;;;;;42.70;26.40;;;;;;;0.41;99.79;98604.38;102794;1310;60545;-83
2021/12/07 09:20:31;;;;;;;45.80;29.20;;;;;;;0.42;99.72;98598.41;103160;1310;60571;-80
2021/12/07 09:22:59;;;;;;;46.20;28.70;;;;;;;0.47;99.89;98595.30;102629;1311;75873;-77
2021/12/07 09:25:25;;;;;;;43.20;29.10;;;;;;;0.49;99.70;98596.62;102163;1314;70210;-78
2021/12/07 09:27:52;;;;;;;39.20;26.10;;;;;;;0.48;99.52;98596.84;102516;1311;73915;-76
2021/12/07 09:30:19;;;;;;;41.90;24.70;;;;;;;0.45;99.37;98594.48;102532;1311;60513;-76
2021/12/07 09:32:46;;;;;;;35.00;23.20;;;;;;;0.44;99.38;98594.33;102515;1311;61948;-79
2021/12/07 09:35:14;;;;;;;35.00;22.30;;;;;;;0.47;99.30;98590.73;102886;1311;74741;-79
2021/12/07 09:37:41;;;;;;;36.30;22.80;;;;;;;0.51;99.20;98591.14;102841;1311;68635;-79
2021/12/07 09:40:13;;;;;;;39.90;22.90;;;;;;;0.50;98.97;98590.83;102563;1311;74474;-77
2021/12/07 09:42:40;;;;;;;32.80;20.90;;;;;;;0.52;99.01;98596.34;102801;1314;60542;-80
2021/12/07 09:45:10;;;;;;;36.80;23.00;;;;;;;0.51;98.81;98596.90;102912;1310;62337;-80
2021/12/07 09:47:37;;;;;;;36.20;21.40;;;;;;;0.53;99.01;98595.61;102759;1310;74693;-79
2021/12/07 09:50:06;;;;;;;36.40;23.30;;;;;;;0.58;99.02;98597.37;102760;1310;69570;-81
2021/12/07 09:52:33;;;;;;;38.60;23.40;;;;;;;0.62;98.96;98592.48;102576;1310;74272;-78
2021/12/07 09:55:00;;;;;;;34.60;22.60;;;;;;;0.66;98.85;98594.49;102570;1311;60504;-74
2021/12/07 09:57:27;;;;;;;38.60;24.50;;;;;;;0.68;98.81;98589.86;102537;1310;62003;-78
2021/12/07 09:59:54;;;;;;;40.60;25.10;;;;;;;0.73;98.97;98590.56;102505;1311;74396;-76
2021/12/07 10:02:20;;;;;;;44.60;27.00;;;;;;;0.77;98.95;98594.63;102547;1310;69530;-79
2021/12/07 10:04:47;;;;;;;38.80;25.70;;;;;;;0.77;98.78;98592.69;102575;1310;73760;-80
2021/12/07 10:07:14;;;;;;;45.40;27.70;;;;;;;0.74;98.39;98591.44;102740;1309;60459;-83
2021/12/07 10:09:41;;;;;;;40.90;24.90;;;;;;;0.68;98.41;98592.32;102610;1317;61983;-81
2021/12/07 10:12:08;;;;;;;39.80;26.00;;;;;;;0.66;98.33;98592.38;103006;1310;74462;-85
2021/12/07 10:14:40;;;;;;;38.40;24.00;;;;;;;0.67;98.38;98589.03;103286;1308;68484;-84
2021/12/07 10:17:07;;;;;;;38.80;23.70;;;;;;;0.71;98.33;98594.84;103029;1307;74538;-82
2021/12/07 10:19:43;;;;;;;37.60;23.50;;;;;;;0.74;98.26;98592.98;102812;1308;60570;-82
2021/12/07 10:22:18;;;;;;;41.60;24.70;;;;;;;0.76;98.01;98590.29;102894;1308;60970;-78
2021/12/07 10:24:49;;;;;;;34.10;20.30;;;;;;;0.76;97.78;98593.45;103156;1307;74534;-81
2021/12/07 10:27:33;;;;;;;39.10;25.00;;;;;;;0.70;97.18;98588.77;102546;1313;69592;-80
2021/12/07 10:30:04;;;;;;;38.40;23.40;;;;;;;0.65;97.58;98584.91;103005;1307;72876;-81
2021/12/07 10:32:31;;;;;;;36.50;23.20;;;;;;;0.66;97.55;98588.90;103104;1307;59534;-84
2021/12/07 10:34:58;;;;;;;41.60;24.70;;;;;;;0.70;97.61;98591.95;103102;1308;62027;-83
2021/12/07 10:37:26;;;;;;;34.00;21.30;;;;;;;0.71;97.40;98598.17;104843;1307;74541;-82
2021/12/07 10:39:55;;;;;;;42.20;25.80;;;;;;;0.68;97.18;98592.16;104142;1313;69493;-77
2021/12/07 10:42:29;;;;;;;38.70;24.60;;;;;;;0.69;97.36;98599.80;103389;1307;71752;-83
2021/12/07 10:45:00;;;;;;;39.70;24.40;;;;;;;0.67;97.06;98599.36;103300;1308;60480;-82
2021/12/07 10:47:28;;;;;;;41.00;25.80;;;;;;;0.65;97.27;98602.38;103453;1307;61231;-77
2021/12/07 10:49:58;;;;;;;36.40;23.30;;;;;;;0.68;97.20;98600.89;103680;1308;75572;-86
2021/12/07 10:52:26;;;;;;;37.50;23.20;;;;;;;0.70;97.16;98600.81;104306;1314;67792;-90
2021/12/07 10:55:15;;;;;;;36.80;23.00;;;;;;;0.75;97.18;98597.69;105557;1316;73420;-78
2021/12/07 10:57:57;;;;;;;35.80;23.80;;;;;;;0.80;97.00;98596.30;105486;1307;60404;-76
2021/12/07 11:00:36;;;;;;;38.80;23.70;;;;;;;0.83;96.89;98594.08;105357;1313;61232;-77
2021/12/07 11:03:10;;;;;;;38.50;24.80;;;;;;;0.89;96.80;98594.92;105345;1314;74518;-76
2021/12/07 11:05:39;;;;;;;41.80;24.10;;;;;;;0.96;96.67;98595.20;104944;1310;67886;-82
2021/12/07 11:08:09;;;;;;;40.90;25.10;;;;;;;1.01;96.49;98590.52;103739;1308;73536;-76
2021/12/07 11:10:40;;;;;;;35.30;24.20;;;;;;;1.04;96.48;98589.15;102728;1307;60591;-78
2021/12/07 11:13:17;;;;;;;39.90;25.70;;;;;;;1.07;96.52;98588.70;102723;1308;61295;-76
2021/12/07 11:15:57;;;;;;;39.80;25.60;;;;;;;1.11;96.43;98591.55;102845;1310;75707;-83
2021/12/07 11:18:28;;;;;;;39.20;25.10;;;;;;;1.19;96.58;98590.58;103075;1307;69719;-81
2021/12/07 11:21:23;;;;;;;41.90;26.00;;;;;;;1.23;96.26;98590.61;103384;1313;74793;-88
2021/12/07 11:23:53;;;;;;;38.50;23.50;;;;;;;1.23;95.95;98590.95;102744;1317;60478;-83
2021/12/07 11:31:51;;;;;;;38.40;25.80;;;;;;;1.11;95.76;98590.33;102831;1317;69550;-89
2021/12/07 11:34:19;;;;;;;38.60;26.20;;;;;;;1.10;95.78;98592.61;102621;1316;73515;-85
2021/12/07 11:36:50;;;;;;;36.30;25.10;;;;;;;1.12;95.85;98593.44;102608;1316;60588;-80
2021/12/07 11:39:31;;;;;;;41.70;28.70;;;;;;;1.11;95.76;98592.23;102480;1320;60877;-82
2021/12/07 11:42:11;;;;;;;44.80;29.50;;;;;;;1.12;95.94;98593.77;102170;1317;74942;-81
2021/12/07 11:45:03;;;;;;;39.70;27.60;;;;;;;1.12;95.86;98587.16;102835;1317;70857;-89
2021/12/07 11:47:35;;;;;;;38.60;26.90;;;;;;;1.07;95.68;98589.27;102451;1322;74564;-92
2021/12/07 11:50:19;;;;;;;36.10;25.00;;;;;;;1.01;95.58;98590.14;102349;1326;60493;-87
2021/12/07 11:52:49;;;;;;;41.80;27.40;;;;;;;0.92;95.41;98597.96;102151;1322;60719;-84
2021/12/07 11:55:17;;;;;;;35.90;23.80;;;;;;;0.86;95.64;98602.05;101777;1322;75769;-83
2021/12/07 11:57:46;;;;;;;39.70;25.70;;;;;;;0.81;95.63;98603.41;102230;1323;69846;-86
2021/12/07 12:00:18;;;;;;;37.30;23.60;;;;;;;0.83;95.98;98604.39;102144;1322;75126;-78
2021/12/07 12:02:45;;;;;;;34.70;23.20;;;;;;;0.84;95.70;98603.15;101897;1316;60700;-80
2021/12/07 12:05:12;;;;;;;34.60;23.80;;;;;;;0.81;95.69;98605.34;101781;1319;61337;-80
2021/12/07 12:07:41;;;;;;;37.00;23.60;;;;;;;0.80;95.80;98602.40;102036;1316;75688;-80
2021/12/07 12:10:12;;;;;;;38.00;25.00;;;;;;;0.80;95.82;98600.46;101968;1316;69630;-78
2021/12/07 12:13:07;;;;;;;34.70;23.70;;;;;;;0.78;95.51;98603.52;101924;1316;74426;-77
2021/12/07 12:15:50;;;;;;;35.60;22.70;;;;;;;0.71;95.51;98601.31;101952;1317;60705;-77
2021/12/07 12:18:36;;;;;;;32.70;21.80;;;;;;;0.68;95.49;98601.95;101914;1316;62222;-76
2021/12/07 12:21:13;;;;;;;36.20;23.20;;;;;;;0.66;95.37;98599.90;101585;1320;74257;-76
2021/12/07 12:23:59;;;;;;;32.90;22.50;;;;;;;0.65;95.59;98597.85;102048;1317;70075;-77
2021/12/07 12:26:27;;;;;;;36.00;23.20;;;;;;;0.69;95.82;98595.80;102611;1307;72097;-77
2021/12/07 12:28:58;;;;;;;34.70;22.70;;;;;;;0.73;95.69;98598.10;102828;1314;60540;-76
2021/12/07 12:31:42;;;;;;;34.70;23.10;;;;;;;0.71;95.39;98598.35;102513;1308;62171;-76
2021/12/07 12:34:38;;;;;;;36.80;23.60;;;;;;;0.66;95.37;98598.70;102452;1308;74365;-76
2021/12/07 12:37:10;;;;;;;37.50;24.00;;;;;;;0.63;95.54;98599.80;101467;1319;70158;-76
2021/12/07 12:39:43;;;;;;;36.90;24.30;;;;;;;0.63;95.58;98600.00;101832;1317;73949;-78
2021/12/07 12:42:14;;;;;;;36.10;24.20;;;;;;;0.64;95.80;98604.16;101735;1319;159929;-79
2021/12/07 12:44:42;;;;;;;34.40;22.60;;;;;;;0.69;95.88;98608.56;101840;1320;60907;-76
2021/12/07 12:47:08;;;;;;;33.80;23.10;;;;;;;0.69;95.70;98610.14;101909;1317;74582;-76
2021/12/07 12:49:40;;;;;;;37.60;24.60;;;;;;;0.69;95.65;98611.88;101884;1317;69788;-77
2021/12/07 12:52:08;;;;;;;36.70;23.90;;;;;;;0.72;95.83;98617.03;101890;1317;72088;-76
2021/12/07 12:54:44;;;;;;;40.10;25.30;;;;;;;0.72;95.74;98617.72;101522;1319;60602;-76
2021/12/07 12:57:15;;;;;;;38.00;23.50;;;;;;;0.71;95.76;98621.60;102060;1319;60389;-78
2021/12/07 12:59:47;;;;;;;38.40;24.90;;;;;;;0.73;95.88;98627.65;102008;1316;74564;-75